Terminal Aerodrome Forecast
Issued by NWS Anchorage, AK

Current Version | Previous Version | Text Only | Print | Product List | Glossary On
Versions: 1 2 3 4 5 6 7 8 9 10 11 12 13 14 15 16 17 18 19 20 21 22 23 24
000
FTAK31 PANC 310408 AAC
TAFANC
TAF AMD
PANC 310408Z 3104/0106 15008G15KT P6SM SCT040 BKN060 BKN080
      WS020/21035KT
     FM311800 15010G18KT P6SM BKN050=

USA.gov is the U.S. government's official web portal to all federal, state and local government web resources and services.